Time;durP1;ratioP1;P1;durP2;ratioP2;P2;SDS_P1;SDS_P2;PMS_P1;PMS_P2;Temp;Humidity;BMP_temperature;BMP_pressure;BME280_temperature;BME280_humidity;BME280_pressure;Samples;Min_cycle;Max_cycle;Signal;HPM_P1;HPM_P2
2021/01/10 00:00:24;;;;;;;1999.90;999.90;;;-1.00;99.90;;;;;;5102640;28;20446;-47
2021/01/10 15:43:22;;;;;;;1999.90;999.90;;;-1.10;99.90;;;;;;5066344;28;20551;-46
2021/01/10 15:45:47;;;;;;;1999.90;999.90;;;-1.20;99.90;;;;;;5046750;28;20565;-46
2021/01/10 15:48:13;;;;;;;1999.90;999.90;;;-1.40;99.90;;;;;;5048737;28;20765;-47
2021/01/10 15:50:42;;;;;;;1999.90;999.90;;;-1.40;99.90;;;;;;5047024;28;20217;-46
2021/01/10 15:53:08;;;;;;;1999.90;999.90;;;-1.50;99.90;;;;;;5047861;28;20186;-47
2021/01/10 15:55:33;;;;;;;1999.90;999.90;;;-1.60;99.90;;;;;;5047353;28;20487;-47
2021/01/10 15:57:59;;;;;;;1999.90;999.90;;;-1.60;99.90;;;;;;5058421;28;20205;-46
2021/01/10 16:00:24;;;;;;;1999.90;999.90;;;-1.70;99.90;;;;;;5047453;28;20662;-46
2021/01/10 16:02:50;;;;;;;1999.90;999.90;;;-1.80;99.90;;;;;;5060099;28;20212;-46
2021/01/10 16:05:16;;;;;;;1999.90;999.90;;;-1.90;99.90;;;;;;5057883;28;20281;-46
2021/01/10 16:07:41;;;;;;;1999.90;999.90;;;-2.00;99.90;;;;;;5066499;28;20190;-47
2021/01/10 16:10:08;;;;;;;1999.90;999.90;;;-2.10;99.90;;;;;;5060990;28;20205;-46
2021/01/10 16:12:35;;;;;;;1999.90;999.90;;;-2.20;99.90;;;;;;5060475;28;20272;-47
2021/01/10 16:15:00;;;;;;;1999.90;999.90;;;-2.30;99.90;;;;;;5054800;28;20478;-47
2021/01/10 16:17:27;;;;;;;1999.90;999.90;;;-2.40;99.90;;;;;;5062207;28;20436;-46
2021/01/10 16:19:53;;;;;;;1999.90;999.90;;;-2.50;99.90;;;;;;5058394;28;20177;-46
2021/01/10 16:22:19;;;;;;;1999.90;999.90;;;-2.60;99.90;;;;;;5056189;28;20476;-47
2021/01/10 16:24:45;;;;;;;1999.90;999.90;;;-2.90;99.90;;;;;;5056137;28;20454;-47
2021/01/10 16:27:18;;;;;;;1999.90;999.90;;;-3.00;99.90;;;;;;5058650;28;20422;-46
2021/01/10 16:29:45;;;;;;;1999.90;999.90;;;-3.10;99.90;;;;;;5057293;28;20264;-47
2021/01/10 16:32:12;;;;;;;1999.90;999.90;;;-3.10;99.90;;;;;;5052451;28;20443;-46
2021/01/10 16:34:38;;;;;;;1999.90;999.90;;;-3.20;99.90;;;;;;5057083;28;21003;-47
2021/01/10 16:37:03;;;;;;;1999.90;999.90;;;-3.20;99.90;;;;;;5059472;28;20446;-46
2021/01/10 16:39:29;;;;;;;1999.90;999.90;;;-3.30;99.90;;;;;;5054645;28;20804;-47
2021/01/10 16:41:55;;;;;;;1999.90;999.90;;;-3.40;99.90;;;;;;5053170;28;20218;-46
2021/01/10 16:44:21;;;;;;;1999.90;999.90;;;-3.60;99.90;;;;;;5056623;28;20240;-46
2021/01/10 16:46:46;;;;;;;1999.90;999.90;;;-3.70;99.90;;;;;;5059099;28;20651;-46
2021/01/10 16:49:12;;;;;;;1999.90;999.90;;;-3.90;99.90;;;;;;5055874;28;20694;-47
2021/01/10 16:51:44;;;;;;;1999.90;999.90;;;-4.10;99.90;;;;;;5058309;28;20281;-47
2021/01/10 16:54:16;;;;;;;1999.90;999.90;;;-4.00;99.90;;;;;;5044547;28;20357;-47
2021/01/10 16:56:43;;;;;;;1999.90;999.90;;;-4.00;99.90;;;;;;5038952;28;20444;-47
2021/01/10 16:59:08;;;;;;;1999.90;999.90;;;-4.10;99.90;;;;;;5041303;28;20429;-46
2021/01/10 17:01:34;;;;;;;1999.90;999.90;;;-4.10;99.90;;;;;;5041508;28;20473;-47
2021/01/10 17:04:00;;;;;;;1999.90;999.90;;;-4.10;99.90;;;;;;5038561;28;20197;-47
2021/01/10 17:06:25;;;;;;;1999.90;999.90;;;-4.10;99.90;;;;;;5043095;28;20261;-47
2021/01/10 17:08:52;;;;;;;1999.90;999.90;;;-4.20;99.90;;;;;;5040835;28;20260;-47
2021/01/10 17:11:18;;;;;;;1999.90;999.90;;;-4.40;99.90;;;;;;5042893;28;20436;-46
2021/01/10 17:13:44;;;;;;;1999.90;999.90;;;-4.50;99.90;;;;;;5037960;28;20451;-46
2021/01/10 17:16:13;;;;;;;1999.90;999.90;;;-4.50;99.90;;;;;;5039636;28;20446;-46
2021/01/10 17:18:42;;;;;;;1999.90;999.90;;;-4.60;99.90;;;;;;5039967;28;20861;-46
2021/01/10 17:21:09;;;;;;;1999.90;999.90;;;-4.60;99.90;;;;;;5043193;28;20410;-47
2021/01/10 17:23:35;;;;;;;1999.90;999.90;;;-4.60;99.90;;;;;;5041662;28;20457;-47
2021/01/10 17:26:01;;;;;;;1999.90;999.90;;;-4.80;99.90;;;;;;5041352;28;20538;-46
2021/01/10 17:28:26;;;;;;;1999.90;999.90;;;-4.80;99.90;;;;;;5042542;28;20424;-47
2021/01/10 17:30:52;;;;;;;1999.90;999.90;;;-4.90;99.90;;;;;;5041206;28;20436;-46
2021/01/10 17:33:21;;;;;;;1999.90;999.90;;;-5.00;99.90;;;;;;5036699;28;20745;-46
2021/01/10 17:35:46;;;;;;;1999.90;999.90;;;-5.00;99.90;;;;;;5041714;28;20206;-46
2021/01/10 17:38:12;;;;;;;1999.90;999.90;;;-5.10;99.90;;;;;;5042162;28;20420;-47
2021/01/10 17:40:38;;;;;;;1999.90;999.90;;;-5.30;99.90;;;;;;5037339;28;20238;-47
2021/01/10 17:43:04;;;;;;;1999.90;999.90;;;-5.30;99.90;;;;;;5050717;28;20239;-47
2021/01/10 17:45:29;;;;;;;1999.90;999.90;;;-5.30;99.90;;;;;;5046326;28;20678;-46
2021/01/10 17:47:55;;;;;;;1999.90;999.90;;;-5.30;99.90;;;;;;5040734;28;20432;-47
2021/01/10 17:50:20;;;;;;;1999.90;999.90;;;-5.30;99.90;;;;;;5040096;28;20271;-47
2021/01/10 17:52:46;;;;;;;1999.90;999.90;;;-5.40;99.90;;;;;;5052122;28;20209;-48
2021/01/10 17:55:12;;;;;;;1999.90;999.90;;;-5.40;99.90;;;;;;5050048;28;20243;-47
2021/01/10 17:57:38;;;;;;;1999.90;999.90;;;-5.50;99.90;;;;;;5051701;28;20208;-47
2021/01/10 18:00:07;;;;;;;1999.90;999.90;;;-5.50;99.90;;;;;;5051285;28;20242;-47
2021/01/10 18:02:34;;;;;;;1999.90;999.90;;;-5.60;99.90;;;;;;5047315;28;20217;-46
2021/01/10 18:05:00;;;;;;;1999.90;999.90;;;-5.60;99.90;;;;;;5040421;28;20296;-46
2021/01/10 18:07:26;;;;;;;1999.90;999.90;;;-5.70;99.90;;;;;;5041900;28;20217;-46
2021/01/10 18:09:53;;;;;;;1999.90;999.90;;;-5.70;99.90;;;;;;5042685;28;20192;-46
2021/01/10 18:12:18;;;;;;;1999.90;999.90;;;-5.80;99.90;;;;;;5039282;28;20199;-46
2021/01/10 18:14:44;;;;;;;1999.90;999.90;;;-5.90;99.90;;;;;;5030103;28;20305;-46
2021/01/10 18:17:10;;;;;;;1999.90;999.90;;;-6.00;99.90;;;;;;5030644;28;20192;-47
2021/01/10 18:19:35;;;;;;;1999.90;999.90;;;-6.00;99.90;;;;;;5035485;28;20251;-47
2021/01/10 18:22:01;;;;;;;1999.90;999.90;;;-6.00;99.90;;;;;;5044738;28;20198;-47
2021/01/10 18:24:27;;;;;;;1999.90;999.90;;;-6.10;99.90;;;;;;5032465;28;20245;-47
2021/01/10 18:26:53;;;;;;;1999.90;999.90;;;-6.10;99.90;;;;;;5030192;28;20217;-47
2021/01/10 18:29:20;;;;;;;1999.90;999.90;;;-6.20;99.90;;;;;;5030392;28;20263;-44
2021/01/10 18:31:45;;;;;;;1999.90;999.90;;;-6.20;99.90;;;;;;5031884;28;20197;-45
2021/01/10 18:34:11;;;;;;;1999.90;999.90;;;-6.30;99.90;;;;;;5031595;28;20784;-45
2021/01/10 18:36:37;;;;;;;1999.90;999.90;;;-6.30;99.90;;;;;;5038897;28;20771;-45
2021/01/10 18:39:03;;;;;;;1999.90;999.90;;;-6.30;99.90;;;;;;5035786;28;20194;-45
2021/01/10 18:41:29;;;;;;;1999.90;999.90;;;-6.40;99.90;;;;;;5042160;28;20466;-45
2021/01/10 18:43:55;;;;;;;1999.90;999.90;;;-6.40;99.90;;;;;;5039380;28;20565;-46
2021/01/10 18:46:25;;;;;;;1999.90;999.90;;;-6.40;99.90;;;;;;5037083;28;21019;-45
2021/01/10 18:48:52;;;;;;;1999.90;999.90;;;-6.50;99.90;;;;;;5037999;28;20305;-45
2021/01/10 18:51:27;;;;;;;1999.90;999.90;;;-6.50;99.90;;;;;;5041128;28;20213;-45
2021/01/10 18:53:54;;;;;;;1999.90;999.90;;;-6.60;99.90;;;;;;5038849;28;20188;-45
2021/01/10 18:56:19;;;;;;;1999.90;999.90;;;-6.60;99.90;;;;;;5036920;28;20189;-45
2021/01/10 18:58:45;;;;;;;1999.90;999.90;;;-6.80;99.90;;;;;;5033211;28;20604;-47
2021/01/10 19:01:11;;;;;;;1999.90;999.90;;;-6.80;99.90;;;;;;5034512;28;20196;-45
2021/01/10 19:03:36;;;;;;;1999.90;999.90;;;-6.80;99.90;;;;;;5042426;28;20180;-46
2021/01/10 19:06:02;;;;;;;1999.90;999.90;;;-6.80;99.90;;;;;;5034628;28;20252;-45
2021/01/10 19:08:27;;;;;;;1999.90;999.90;;;-6.90;99.90;;;;;;5033986;28;20268;-45
2021/01/10 19:10:53;;;;;;;1999.90;999.90;;;-7.00;99.90;;;;;;5036151;28;20185;-45
2021/01/10 19:13:19;;;;;;;1999.90;999.90;;;-7.00;99.90;;;;;;5042451;28;20202;-46
2021/01/10 19:15:44;;;;;;;1999.90;999.90;;;-7.10;99.90;;;;;;5040313;28;20216;-46
2021/01/10 19:18:10;;;;;;;1999.90;999.90;;;-7.10;99.90;;;;;;5040120;28;20648;-45
2021/01/10 19:20:36;;;;;;;1999.90;999.90;;;-7.10;99.90;;;;;;5032512;28;20306;-46
2021/01/10 19:23:01;;;;;;;1999.90;999.90;;;-7.10;99.90;;;;;;5037292;28;20289;-46
2021/01/10 19:25:27;;;;;;;1999.90;999.90;;;-7.20;99.90;;;;;;5039758;28;20269;-45
2021/01/10 19:27:52;;;;;;;1999.90;999.90;;;-7.20;99.90;;;;;;5038246;28;20208;-45
2021/01/10 19:30:18;;;;;;;1999.90;999.90;;;-7.20;99.90;;;;;;5032449;28;20268;-47
2021/01/10 19:32:44;;;;;;;1999.90;999.90;;;-7.30;99.90;;;;;;5037797;28;20210;-45
2021/01/10 19:35:11;;;;;;;1999.90;999.90;;;-7.30;99.90;;;;;;5034504;28;20708;-45
2021/01/10 19:37:38;;;;;;;1999.90;999.90;;;-7.40;99.90;;;;;;5037595;28;20249;-45
2021/01/10 19:40:05;;;;;;;1999.90;999.90;;;-7.40;99.90;;;;;;5038482;28;20712;-45
2021/01/10 19:42:31;;;;;;;1999.90;999.90;;;-7.50;99.90;;;;;;5037659;28;20211;-45
2021/01/10 19:44:56;;;;;;;1999.90;999.90;;;-7.50;99.90;;;;;;5038993;28;20204;-45
2021/01/10 19:47:22;;;;;;;1999.90;999.90;;;-7.60;99.90;;;;;;5035454;28;20193;-45
2021/01/10 19:49:48;;;;;;;1999.90;999.90;;;-7.50;99.90;;;;;;5041255;28;20233;-45
2021/01/10 19:52:13;;;;;;;1999.90;999.90;;;-7.50;99.90;;;;;;5034423;28;20201;-45
2021/01/10 19:54:40;;;;;;;1999.90;999.90;;;-7.50;99.90;;;;;;5039552;28;20599;-46
2021/01/10 19:57:06;;;;;;;1999.90;999.90;;;-7.60;99.90;;;;;;5036685;28;20197;-45
2021/01/10 19:59:32;;;;;;;1999.90;999.90;;;-7.70;99.90;;;;;;5040524;28;20252;-45
2021/01/10 20:01:57;;;;;;;1999.90;999.90;;;-7.70;99.90;;;;;;5037493;28;20206;-45
2021/01/10 20:04:23;;;;;;;1999.90;999.90;;;-7.70;99.90;;;;;;5036009;28;20604;-45
2021/01/10 20:06:49;;;;;;;1999.90;999.90;;;-7.80;99.90;;;;;;5035262;28;20995;-45
2021/01/10 20:09:14;;;;;;;1999.90;999.90;;;-7.80;99.90;;;;;;5039954;28;20176;-47
2021/01/10 20:11:43;;;;;;;1999.90;999.90;;;-7.80;99.90;;;;;;5037446;28;20316;-46
2021/01/10 20:14:09;;;;;;;1999.90;999.90;;;-7.80;99.90;;;;;;5038158;28;20271;-45
2021/01/10 20:16:39;;;;;;;1999.90;999.90;;;-7.90;99.90;;;;;;5037246;28;20220;-47
2021/01/10 20:19:24;;;;;;;1999.90;999.90;;;-7.90;99.90;;;;;;5039737;28;20183;-45
2021/01/10 20:21:53;;;;;;;1999.90;999.90;;;-8.00;99.90;;;;;;5039468;28;20214;-46
2021/01/10 20:24:18;;;;;;;1999.90;999.90;;;-8.10;99.90;;;;;;5036081;28;20216;-45
2021/01/10 20:26:44;;;;;;;1999.90;999.90;;;-8.10;99.90;;;;;;5033423;28;20180;-46
2021/01/10 20:29:09;;;;;;;1999.90;999.90;;;-8.00;99.90;;;;;;5038515;28;20184;-46
2021/01/10 20:31:35;;;;;;;1999.90;999.90;;;-8.10;99.90;;;;;;5034328;28;20196;-46
2021/01/10 20:34:02;;;;;;;1999.90;999.90;;;-8.00;99.90;;;;;;5030436;28;20275;-45
2021/01/10 20:36:43;;;;;;;1999.90;999.90;;;-8.00;99.90;;;;;;5032166;28;20966;-45
2021/01/10 20:39:33;;;;;;;1999.90;999.90;;;-8.00;99.90;;;;;;5039695;28;20568;-45
2021/01/10 20:42:00;;;;;;;1999.90;999.90;;;-8.10;99.90;;;;;;5031179;28;20212;-46
2021/01/10 20:44:26;;;;;;;1999.90;999.90;;;-8.20;99.90;;;;;;5030202;28;20212;-45
2021/01/10 20:46:52;;;;;;;1999.90;999.90;;;-8.30;99.90;;;;;;5029890;28;20175;-45
2021/01/10 20:49:18;;;;;;;1999.90;999.90;;;-8.30;99.90;;;;;;5031607;28;20192;-45
2021/01/10 20:51:44;;;;;;;1999.90;999.90;;;-8.30;99.90;;;;;;5050594;28;20454;-45
2021/01/10 20:54:10;;;;;;;1999.90;999.90;;;-8.30;99.90;;;;;;5034413;28;20213;-45
2021/01/10 20:56:39;;;;;;;1999.90;999.90;;;-8.30;99.90;;;;;;5033640;28;20192;-45
2021/01/10 20:59:07;;;;;;;1999.90;999.90;;;-8.30;99.90;;;;;;5048939;28;20191;-45
2021/01/10 21:01:34;;;;;;;1999.90;999.90;;;-8.30;99.90;;;;;;5042371;28;20258;-45
2021/01/10 21:04:01;;;;;;;1999.90;999.90;;;-8.30;99.90;;;;;;5046032;28;20182;-52
2021/01/10 21:06:34;;;;;;;1999.90;999.90;;;-8.40;99.90;;;;;;5030456;28;20556;-45
2021/01/10 21:09:01;;;;;;;1999.90;999.90;;;-8.50;99.90;;;;;;5030806;28;20553;-45
2021/01/10 21:11:30;;;;;;;1999.90;999.90;;;-8.50;99.90;;;;;;5032635;28;20191;-45
2021/01/10 21:13:57;;;;;;;1999.90;999.90;;;-8.50;99.90;;;;;;5042683;28;20871;-47
2021/01/10 21:16:27;;;;;;;1999.90;999.90;;;-8.50;99.90;;;;;;5029910;28;20188;-45
2021/01/10 21:18:53;;;;;;;1999.90;999.90;;;-8.60;99.90;;;;;;5032169;28;20302;-45
2021/01/10 21:21:20;;;;;;;1999.90;999.90;;;-8.60;99.90;;;;;;5048965;28;20280;-45
2021/01/10 21:23:46;;;;;;;1999.90;999.90;;;-8.60;99.90;;;;;;5030478;28;20178;-47
2021/01/10 21:26:12;;;;;;;1999.90;999.90;;;-8.70;99.90;;;;;;5029923;28;20192;-45
2021/01/10 21:28:40;;;;;;;1999.90;999.90;;;-8.70;99.90;;;;;;5033075;28;20227;-45
2021/01/10 21:31:06;;;;;;;1999.90;999.90;;;-8.70;99.90;;;;;;5031576;28;20163;-45
2021/01/10 21:33:33;;;;;;;1999.90;999.90;;;-8.70;99.90;;;;;;5043648;28;20321;-47
2021/01/10 21:36:01;;;;;;;1999.90;999.90;;;-8.60;99.90;;;;;;5030059;28;20238;-45
2021/01/10 21:38:27;;;;;;;1999.90;999.90;;;-8.60;99.90;;;;;;5030494;28;20178;-45
2021/01/10 21:40:52;;;;;;;1999.90;999.90;;;-8.60;99.90;;;;;;5030352;28;20628;-46
2021/01/10 21:43:18;;;;;;;1999.90;999.90;;;-8.60;99.90;;;;;;5030220;28;20477;-45
2021/01/10 21:45:44;;;;;;;1999.90;999.90;;;-8.60;99.90;;;;;;5033767;28;20203;-46
2021/01/10 21:48:10;;;;;;;1999.90;999.90;;;-8.50;99.90;;;;;;5030471;28;20179;-45
2021/01/10 21:50:35;;;;;;;1999.90;999.90;;;-8.50;99.90;;;;;;5029247;28;20195;-45
2021/01/10 21:53:02;;;;;;;1999.90;999.90;;;-8.50;99.90;;;;;;5029848;28;20184;-45
2021/01/10 21:55:27;;;;;;;1999.90;999.90;;;-8.60;99.90;;;;;;5029280;28;20686;-45
2021/01/10 21:57:53;;;;;;;1999.90;999.90;;;-8.50;99.90;;;;;;5029360;28;20202;-45
2021/01/10 22:00:19;;;;;;;1999.90;999.90;;;-8.60;99.90;;;;;;5031900;28;20196;-45
2021/01/10 22:02:45;;;;;;;1999.90;999.90;;;-8.60;99.90;;;;;;5042404;28;20238;-45
2021/01/10 22:05:11;;;;;;;1999.90;999.90;;;-8.60;99.90;;;;;;5047845;28;20445;-45
2021/01/10 22:07:36;;;;;;;1999.90;999.90;;;-8.60;99.90;;;;;;5035588;28;20668;-48
2021/01/10 22:10:03;;;;;;;1999.90;999.90;;;-8.60;99.90;;;;;;5029297;28;20424;-45
2021/01/10 22:12:28;;;;;;;1999.90;999.90;;;-8.60;99.90;;;;;;5039171;28;20186;-46
2021/01/10 22:14:54;;;;;;;1999.90;999.90;;;-8.60;99.90;;;;;;5031888;28;20211;-45
2021/01/10 22:17:19;;;;;;;1999.90;999.90;;;-8.70;99.90;;;;;;5037921;28;20655;-45
2021/01/10 22:19:45;;;;;;;1999.90;999.90;;;-8.80;99.90;;;;;;5048779;28;20952;-45
2021/01/10 22:22:12;;;;;;;1999.90;999.90;;;-8.80;99.90;;;;;;5041573;28;20691;-45
2021/01/10 22:24:39;;;;;;;1999.90;999.90;;;-8.80;99.90;;;;;;5029266;28;20633;-45
2021/01/10 22:27:05;;;;;;;1999.90;999.90;;;-8.80;99.90;;;;;;5030914;28;20170;-46
2021/01/10 22:29:30;;;;;;;1999.90;999.90;;;-8.80;99.90;;;;;;5028780;28;20199;-45
2021/01/10 22:31:56;;;;;;;1999.90;999.90;;;-8.80;99.90;;;;;;5033396;28;20293;-45
2021/01/10 22:34:22;;;;;;;1999.90;999.90;;;-8.80;99.90;;;;;;5046664;28;20252;-46
2021/01/10 22:36:47;;;;;;;1999.90;999.90;;;-8.80;99.90;;;;;;5032539;28;20182;-45
2021/01/10 22:39:20;;;;;;;1999.90;999.90;;;-8.90;99.90;;;;;;5035796;28;20197;-45
2021/01/10 22:41:46;;;;;;;1999.90;999.90;;;-9.00;99.90;;;;;;5021062;28;20269;-45
2021/01/10 22:44:12;;;;;;;1999.90;999.90;;;-9.00;99.90;;;;;;5047019;28;20251;-45
2021/01/10 22:46:37;;;;;;;1999.90;999.90;;;-9.10;99.90;;;;;;5038399;28;20205;-46
2021/01/10 22:49:03;;;;;;;1999.90;999.90;;;-9.10;99.90;;;;;;5031844;28;20285;-45
2021/01/10 22:51:28;;;;;;;1999.90;999.90;;;-9.10;99.90;;;;;;5027936;28;20174;-46
2021/01/10 22:53:54;;;;;;;1999.90;999.90;;;-9.10;99.90;;;;;;5031708;28;20216;-46
2021/01/10 22:56:20;;;;;;;1999.90;999.90;;;-9.20;99.90;;;;;;5027833;28;20259;-46
2021/01/10 22:58:46;;;;;;;1999.90;999.90;;;-9.20;99.90;;;;;;5032854;28;20691;-46
2021/01/10 23:01:12;;;;;;;1999.90;999.90;;;-9.20;99.90;;;;;;5031537;28;20255;-46
2021/01/10 23:03:37;;;;;;;1999.90;999.90;;;-9.20;99.90;;;;;;5043019;28;20198;-46
2021/01/10 23:06:04;;;;;;;1999.90;999.90;;;-9.10;99.90;;;;;;5042147;28;20464;-46
2021/01/10 23:08:30;;;;;;;1999.90;999.90;;;-9.10;99.90;;;;;;5037793;28;20194;-45
2021/01/10 23:10:56;;;;;;;1999.90;999.90;;;-9.00;99.90;;;;;;5044246;28;20190;-45
2021/01/10 23:13:21;;;;;;;1999.90;999.90;;;-9.00;99.90;;;;;;5047429;28;20189;-45
2021/01/10 23:15:47;;;;;;;1999.90;999.90;;;-8.90;99.90;;;;;;5027895;28;20225;-46
2021/01/10 23:18:13;;;;;;;1999.90;999.90;;;-8.80;99.90;;;;;;5043235;28;20228;-46
2021/01/10 23:20:39;;;;;;;1999.90;999.90;;;-8.70;99.90;;;;;;5048087;28;20427;-46
2021/01/10 23:23:04;;;;;;;1999.90;999.90;;;-8.70;99.90;;;;;;5040071;28;20907;-46
2021/01/10 23:25:30;;;;;;;1999.90;999.90;;;-8.70;99.90;;;;;;5045712;28;21031;-45
2021/01/10 23:27:56;;;;;;;1999.90;999.90;;;-8.60;99.90;;;;;;5039156;28;20183;-45
2021/01/10 23:30:24;;;;;;;1999.90;999.90;;;-8.60;99.90;;;;;;5037809;28;20175;-45
2021/01/10 23:32:55;;;;;;;1999.90;999.90;;;-8.70;99.90;;;;;;5035554;28;20191;-46
